createdAt,value
2018-04-26T00:01:26.381Z,9.00
2018-04-26T00:03:53.105Z,8.80
2018-04-26T00:06:19.143Z,8.80
2018-04-26T00:08:45.984Z,8.80
2018-04-26T00:11:12.730Z,8.80
2018-04-26T00:13:39.477Z,8.90
2018-04-26T00:16:06.242Z,8.90
2018-04-26T00:18:32.246Z,8.90
2018-04-26T00:20:58.357Z,8.90
2018-04-26T00:23:25.090Z,8.80
2018-04-26T00:25:51.821Z,8.80
2018-04-26T00:28:17.838Z,8.80
2018-04-26T00:30:43.841Z,8.80
2018-04-26T00:33:09.837Z,8.80
2018-04-26T00:35:36.577Z,9.00
2018-04-26T00:38:02.569Z,9.00
2018-04-26T00:40:29.317Z,9.10
2018-04-26T00:42:56.053Z,9.10
2018-04-26T00:45:22.872Z,9.00
2018-04-26T00:47:48.813Z,9.00
2018-04-26T00:50:15.553Z,8.80
2018-04-26T00:52:42.293Z,8.80
2018-04-26T00:55:09.049Z,8.90
2018-04-26T00:57:35.938Z,8.90
2018-04-26T01:00:03.438Z,8.80
2018-04-26T01:02:30.178Z,8.70
2018-04-26T01:04:56.897Z,8.70
2018-04-26T01:07:22.909Z,8.70
2018-04-26T01:09:48.887Z,8.20
2018-04-26T01:12:14.886Z,8.40
2018-04-26T01:14:40.849Z,8.50
2018-04-26T01:17:06.853Z,8.50
2018-04-26T01:19:32.837Z,8.50
2018-04-26T01:21:59.597Z,8.40
2018-04-26T01:24:26.330Z,8.40
2018-04-26T01:26:53.095Z,8.40
2018-04-26T01:29:19.074Z,8.30
2018-04-26T01:31:45.061Z,8.40
2018-04-26T01:34:11.049Z,8.40
2018-04-26T01:36:43.909Z,8.20
2018-04-26T01:39:09.874Z,8.20
2018-04-26T01:41:35.874Z,8.30
2018-04-26T01:44:02.622Z,8.30
2018-04-26T01:46:29.357Z,8.30
2018-04-26T01:48:56.080Z,7.90
2018-04-26T01:51:22.097Z,7.90
2018-04-26T01:53:48.150Z,8.00
2018-04-26T01:56:14.901Z,8.00
2018-04-26T01:58:40.910Z,8.00
2018-04-26T02:01:07.672Z,7.90
2018-04-26T02:03:33.654Z,7.90
2018-04-26T02:05:59.642Z,8.00
2018-04-26T02:08:25.641Z,7.90
2018-04-26T02:10:51.634Z,7.90
2018-04-26T02:13:17.625Z,7.90
2018-04-26T02:15:43.627Z,7.90
2018-04-26T02:18:09.639Z,7.90
2018-04-26T02:20:35.606Z,7.60
2018-04-26T02:23:01.650Z,7.70
2018-04-26T02:25:27.622Z,7.80
2018-04-26T02:27:53.625Z,7.80
2018-04-26T02:30:20.342Z,7.90
2018-04-26T02:32:47.090Z,7.80
2018-04-26T02:35:13.860Z,7.90
2018-04-26T02:37:40.565Z,7.80
2018-04-26T02:40:07.286Z,7.80
2018-04-26T02:42:33.285Z,7.80
2018-04-26T02:44:59.287Z,7.90
2018-04-26T02:47:25.282Z,7.90
2018-04-26T02:49:51.264Z,7.90
2018-04-26T02:52:17.268Z,7.90
2018-04-26T02:54:43.265Z,7.90
2018-04-26T02:57:09.267Z,7.80
2018-04-26T02:59:36.002Z,7.90
2018-04-26T03:02:02.745Z,7.90
2018-04-26T03:04:29.465Z,7.90
2018-04-26T03:06:55.495Z,7.90
2018-04-26T03:09:21.469Z,7.60
2018-04-26T03:11:47.475Z,7.90
2018-04-26T03:14:13.470Z,8.00
2018-04-26T03:16:40.189Z,7.90
2018-04-26T03:19:06.182Z,7.90
2018-04-26T03:21:32.186Z,8.00
2018-04-26T03:23:58.232Z,7.70
2018-04-26T03:26:24.206Z,7.80
2018-04-26T03:28:50.953Z,7.80
2018-04-26T03:31:17.721Z,7.80
2018-04-26T03:33:44.430Z,7.90
2018-04-26T03:36:10.410Z,7.80
2018-04-26T03:38:36.400Z,7.90
2018-04-26T03:41:03.137Z,8.00
2018-04-26T03:43:29.120Z,8.00
2018-04-26T03:45:55.087Z,8.00
2018-04-26T03:48:21.092Z,8.10
2018-04-26T03:50:47.822Z,8.00
2018-04-26T03:53:13.809Z,8.00
2018-04-26T03:55:39.845Z,7.90
2018-04-26T03:58:05.837Z,8.00
2018-04-26T04:00:38.022Z,8.00
2018-04-26T04:03:10.213Z,8.10
2018-04-26T04:05:42.309Z,7.90
2018-04-26T04:08:08.306Z,8.00
2018-04-26T04:10:34.306Z,8.10
2018-04-26T04:13:00.309Z,8.20
2018-04-26T04:15:26.289Z,8.10
2018-04-26T04:17:53.025Z,8.20
2018-04-26T04:20:19.008Z,8.20
2018-04-26T04:22:45.006Z,8.30
2018-04-26T04:25:10.997Z,8.30
2018-04-26T04:27:37.738Z,8.10
2018-04-26T04:30:03.861Z,8.10
2018-04-26T04:32:30.605Z,8.00
2018-04-26T04:34:56.632Z,8.00
2018-04-26T04:37:23.353Z,8.30
2018-04-26T04:39:49.367Z,8.20
2018-04-26T04:42:15.535Z,7.90
2018-04-26T04:44:42.269Z,7.90
2018-04-26T04:47:08.981Z,8.00
2018-04-26T04:49:34.977Z,8.00
2018-04-26T04:52:00.957Z,8.00
2018-04-26T04:54:26.969Z,8.10
2018-04-26T04:56:53.677Z,8.10
2018-04-26T04:59:19.681Z,8.10
2018-04-26T05:01:45.681Z,8.10
2018-04-26T05:04:11.701Z,7.90
2018-04-26T05:06:37.683Z,8.00
2018-04-26T05:09:03.740Z,8.20
2018-04-26T05:11:30.445Z,8.20
2018-04-26T05:13:56.458Z,8.20
2018-04-26T05:16:22.461Z,8.30
2018-04-26T05:18:48.485Z,8.30
2018-04-26T05:21:14.469Z,8.50
2018-04-26T05:23:40.709Z,8.20
2018-04-26T05:26:06.705Z,8.30
2018-04-26T05:28:33.455Z,8.50
2018-04-26T05:31:00.181Z,8.40
2018-04-26T05:33:26.172Z,8.40
2018-04-26T05:35:52.153Z,8.40
2018-04-26T05:38:18.157Z,8.30
2018-04-26T05:40:44.882Z,8.40
2018-04-26T05:43:11.017Z,8.40
2018-04-26T05:45:37.760Z,8.40
2018-04-26T05:48:04.501Z,8.50
2018-04-26T05:50:31.249Z,8.50
2018-04-26T05:52:57.969Z,8.30
2018-04-26T05:55:23.980Z,8.30
2018-04-26T05:57:49.962Z,8.50
2018-04-26T06:00:15.985Z,8.70
2018-04-26T06:02:41.974Z,8.80
2018-04-26T06:05:08.970Z,9.00
2018-04-26T06:07:34.962Z,8.90
2018-04-26T06:10:00.962Z,8.90
2018-04-26T06:12:27.687Z,9.10
2018-04-26T06:14:53.678Z,9.10
2018-04-26T06:17:19.654Z,9.10
2018-04-26T06:19:45.638Z,9.20
2018-04-26T06:22:11.597Z,9.30
2018-04-26T06:24:38.382Z,9.30
2018-04-26T06:27:04.314Z,9.30
2018-04-26T06:29:30.321Z,9.50
2018-04-26T06:31:56.303Z,9.70
2018-04-26T06:34:23.049Z,9.70
2018-04-26T06:36:49.847Z,9.80
2018-04-26T06:39:16.575Z,9.80
2018-04-26T06:41:42.617Z,9.80
2018-04-26T06:44:08.641Z,9.70
2018-04-26T06:46:34.638Z,9.80
2018-04-26T06:49:00.630Z,9.80
2018-04-26T06:51:27.366Z,10.00
2018-04-26T06:53:54.109Z,10.00
2018-04-26T06:56:20.849Z,10.10
2018-04-26T06:58:47.585Z,10.10
2018-04-26T07:01:14.325Z,10.30
2018-04-26T07:03:41.049Z,10.30
2018-04-26T07:06:07.807Z,10.00
2018-04-26T07:08:34.545Z,10.10
2018-04-26T07:11:01.302Z,10.10
2018-04-26T07:13:27.278Z,10.10
2018-04-26T07:15:53.292Z,10.20
2018-04-26T07:18:19.289Z,10.10
2018-04-26T07:20:45.277Z,10.10
2018-04-26T07:23:12.013Z,10.40
2018-04-26T07:25:38.009Z,10.40
2018-04-26T07:28:03.997Z,10.60
2018-04-26T07:30:29.988Z,10.50
2018-04-26T07:32:55.944Z,10.50
2018-04-26T07:35:22.197Z,10.50
2018-04-26T07:37:48.174Z,10.50
2018-04-26T07:40:14.903Z,10.60
2018-04-26T07:42:40.890Z,10.60
2018-04-26T07:45:06.881Z,10.60
2018-04-26T07:47:32.869Z,10.80
2018-04-26T07:49:59.613Z,11.00
2018-04-26T07:52:26.357Z,11.20
2018-04-26T07:54:53.109Z,11.10
2018-04-26T07:57:19.251Z,11.00
2018-04-26T07:59:45.673Z,11.20
2018-04-26T08:02:11.729Z,11.60
2018-04-26T08:04:37.717Z,11.30
2018-04-26T08:07:03.727Z,11.40
2018-04-26T08:09:30.461Z,11.10
2018-04-26T08:11:57.202Z,11.10
2018-04-26T08:14:23.950Z,11.10
2018-04-26T08:16:50.755Z,11.10
2018-04-26T08:19:17.453Z,11.10
2018-04-26T08:21:43.449Z,11.10
2018-04-26T08:24:10.197Z,11.10
2018-04-26T08:26:36.929Z,11.30
2018-04-26T08:29:03.654Z,11.20
2018-04-26T08:31:29.645Z,11.20
2018-04-26T08:33:55.656Z,11.20
2018-04-26T08:36:23.238Z,11.40
2018-04-26T08:38:49.237Z,11.60
2018-04-26T08:41:15.225Z,11.40
2018-04-26T08:43:41.969Z,11.70
2018-04-26T08:46:08.680Z,11.80
2018-04-26T08:48:34.775Z,11.80
2018-04-26T08:51:00.763Z,11.90
2018-04-26T08:53:27.498Z,11.70
2018-04-26T08:55:53.496Z,11.70
2018-04-26T08:58:19.864Z,11.80
2018-04-26T09:00:45.853Z,11.80
2018-04-26T09:03:11.854Z,12.00
2018-04-26T09:05:37.852Z,12.30
2018-04-26T09:08:04.756Z,12.30
2018-04-26T09:10:30.816Z,12.20
2018-04-26T09:12:57.642Z,12.10
2018-04-26T09:15:23.649Z,12.00
2018-04-26T09:17:51.276Z,12.00
2018-04-26T09:20:18.977Z,12.00
2018-04-26T09:22:45.708Z,12.10
2018-04-26T09:25:12.863Z,12.30
2018-04-26T09:27:38.897Z,12.30
2018-04-26T09:30:05.511Z,12.30
2018-04-26T09:32:32.449Z,11.90
2018-04-26T09:34:58.385Z,11.80
2018-04-26T09:37:25.231Z,11.60
2018-04-26T09:39:51.969Z,11.70
2018-04-26T09:42:18.693Z,11.80
2018-04-26T09:44:45.585Z,11.80
2018-04-26T09:47:12.617Z,12.10
2018-04-26T09:49:39.604Z,12.50
2018-04-26T09:52:06.756Z,12.40
2018-04-26T09:54:33.720Z,12.10
2018-04-26T09:57:03.161Z,12.00
2018-04-26T09:59:31.641Z,11.90
2018-04-26T10:02:02.330Z,12.10
2018-04-26T10:04:30.273Z,12.30
2018-04-26T10:06:59.833Z,12.40
2018-04-26T10:09:27.704Z,12.20
2018-04-26T10:11:59.202Z,12.20
2018-04-26T10:14:27.377Z,12.30
2018-04-26T10:16:56.125Z,12.50
2018-04-26T10:19:24.288Z,12.60
2018-04-26T10:21:51.973Z,12.70
2018-04-26T10:24:21.417Z,12.60
2018-04-26T10:26:49.698Z,12.30
2018-04-26T10:29:18.396Z,12.30
2018-04-26T10:31:49.101Z,12.50
2018-04-26T10:34:23.017Z,12.50
2018-04-26T10:36:56.337Z,13.00
2018-04-26T10:39:30.017Z,12.90
2018-04-26T10:42:01.101Z,12.80
2018-04-26T10:44:31.218Z,12.90
2018-04-26T10:47:02.877Z,12.80
2018-04-26T10:49:34.003Z,13.20
2018-04-26T10:52:18.770Z,13.40
2018-04-26T10:55:06.886Z,13.50
2018-04-26T10:57:49.041Z,13.30
2018-04-26T11:00:34.910Z,13.70
2018-04-26T11:03:16.273Z,14.10
2018-04-26T11:06:04.286Z,13.90
2018-04-26T11:11:27.502Z,13.00
2018-04-26T14:03:50.179Z,16.60
2018-04-26T14:06:16.951Z,16.30
2018-04-26T14:08:43.071Z,16.20
2018-04-26T14:11:09.821Z,15.90
2018-04-26T14:13:35.817Z,15.80
2018-04-26T14:16:03.277Z,15.20
2018-04-26T14:18:30.014Z,15.10
2018-04-26T14:20:55.986Z,15.00
2018-04-26T14:23:22.037Z,15.30
2018-04-26T14:25:47.992Z,16.10
2018-04-26T14:28:14.740Z,16.20
2018-04-26T14:30:40.702Z,16.10
2018-04-26T14:33:06.717Z,16.60
2018-04-26T14:35:32.730Z,16.10
2018-04-26T14:37:58.709Z,16.60
2018-04-26T14:40:24.704Z,17.20
2018-04-26T14:42:50.694Z,16.90
2018-04-26T14:45:16.701Z,16.80
2018-04-26T14:47:43.547Z,17.00
2018-04-26T14:50:10.290Z,16.90
2018-04-26T14:52:36.345Z,16.90
2018-04-26T14:55:02.383Z,17.30
2018-04-26T14:57:28.378Z,17.20
2018-04-26T14:59:54.383Z,17.20
2018-04-26T15:02:21.105Z,16.10
2018-04-26T15:04:47.101Z,16.10
2018-04-26T15:07:13.085Z,15.80
2018-04-26T15:09:39.109Z,16.20
2018-04-26T15:12:05.085Z,16.10
2018-04-26T15:14:31.086Z,15.30
2018-04-26T15:16:57.072Z,14.90
2018-04-26T15:19:23.065Z,14.60
2018-04-26T15:21:49.081Z,14.70
2018-04-26T15:24:15.051Z,14.60
2018-04-26T15:26:41.058Z,14.50
2018-04-26T15:29:07.046Z,14.50
2018-04-26T15:31:33.039Z,13.70
2018-04-26T15:33:59.021Z,13.70
2018-04-26T15:36:25.762Z,14.10
2018-04-26T15:38:52.571Z,13.90
2018-04-26T15:41:19.215Z,13.50
2018-04-26T15:43:45.181Z,13.50
2018-04-26T15:46:11.905Z,13.50
2018-04-26T15:48:38.629Z,13.30
2018-04-26T15:51:04.645Z,13.30
2018-04-26T15:53:36.718Z,13.20
2018-04-26T15:56:09.597Z,13.50
2018-04-26T15:58:41.722Z,13.50
2018-04-26T16:01:14.039Z,14.10
2018-04-26T16:03:46.942Z,15.20
2018-04-26T16:06:25.078Z,15.20
2018-04-26T16:08:57.217Z,14.40
2018-04-26T16:11:29.328Z,14.10
2018-04-26T16:14:01.373Z,14.80
2018-04-26T16:16:39.835Z,14.30
2018-04-26T16:19:18.190Z,14.00
2018-04-26T16:22:07.032Z,14.30
2018-04-26T16:24:55.100Z,14.20
2018-04-26T16:27:33.393Z,14.30
2018-04-26T16:30:06.190Z,14.20
2018-04-26T16:32:38.230Z,14.10
2018-04-26T16:35:17.344Z,13.60
2018-04-26T16:37:56.416Z,14.00
2018-04-26T16:40:22.481Z,14.00
2018-04-26T16:42:48.505Z,13.50
2018-04-26T16:45:14.485Z,13.50
2018-04-26T16:47:40.590Z,13.20
2018-04-26T16:50:06.653Z,13.60
2018-04-26T16:52:32.643Z,13.60
2018-04-26T16:54:58.673Z,13.50
2018-04-26T16:57:24.727Z,13.20
2018-04-26T16:59:50.740Z,12.90
2018-04-26T17:02:16.777Z,13.30
2018-04-26T17:04:42.890Z,13.90
2018-04-26T17:07:08.853Z,13.60
2018-04-26T17:09:35.570Z,12.60
2018-04-26T17:12:01.553Z,12.60
2018-04-26T17:14:27.620Z,12.50
2018-04-26T17:16:53.629Z,12.40
2018-04-26T17:19:19.670Z,12.80
2018-04-26T17:21:45.641Z,12.40
2018-04-26T17:24:12.382Z,12.40
2018-04-26T17:26:39.105Z,12.10
2018-04-26T17:29:05.101Z,12.10
2018-04-26T17:31:31.097Z,12.00
2018-04-26T17:33:57.125Z,12.20
2018-04-26T17:36:23.212Z,12.00
2018-04-26T17:38:49.950Z,12.20
2018-04-26T17:41:16.697Z,12.10
2018-04-26T17:43:42.714Z,12.10
2018-04-26T17:46:09.457Z,11.80
2018-04-26T17:48:36.181Z,11.70
2018-04-26T17:51:02.177Z,11.70
2018-04-26T17:53:28.277Z,11.70
2018-04-26T17:55:54.372Z,11.60
2018-04-26T17:58:21.193Z,11.40
2018-04-26T18:00:47.842Z,11.20
2018-04-26T18:03:13.864Z,11.20
2018-04-26T18:05:39.896Z,11.30
2018-04-26T18:08:06.617Z,11.30
2018-04-26T18:10:32.617Z,11.30
2018-04-26T18:12:58.590Z,11.50
2018-04-26T18:15:24.593Z,11.70
2018-04-26T18:17:50.601Z,11.80
2018-04-26T18:20:16.665Z,11.80
2018-04-26T18:22:42.612Z,11.30
2018-04-26T18:25:08.658Z,11.10
2018-04-26T18:27:35.328Z,10.80
2018-04-26T18:30:01.329Z,10.80
2018-04-26T18:32:27.399Z,10.80
2018-04-26T18:34:53.413Z,10.80
2018-04-26T18:37:20.181Z,10.70
2018-04-26T18:39:46.330Z,10.70
2018-04-26T18:42:12.520Z,10.60
2018-04-26T18:44:39.263Z,10.40
2018-04-26T18:47:05.265Z,10.40
2018-04-26T18:49:32.036Z,10.50
2018-04-26T18:51:58.828Z,10.40
2018-04-26T18:54:24.817Z,10.40
2018-04-26T18:56:50.974Z,10.40
2018-04-26T18:59:16.962Z,10.40
2018-04-26T19:01:43.029Z,10.20
2018-04-26T19:04:09.818Z,10.00
2018-04-26T19:06:35.831Z,9.90
2018-04-26T19:09:02.557Z,10.20
2018-04-26T19:11:28.784Z,10.10
2018-04-26T19:13:55.665Z,10.20
2018-04-26T19:16:21.671Z,10.10
2018-04-26T19:18:48.105Z,10.00
2018-04-26T19:21:14.345Z,10.10
2018-04-26T19:23:40.373Z,9.90
2018-04-26T19:26:06.365Z,9.90
2018-04-26T19:28:33.104Z,10.20
2018-04-26T19:30:59.928Z,10.10
2018-04-26T19:33:25.900Z,10.10
2018-04-26T19:35:51.877Z,10.00
2018-04-26T19:38:17.928Z,9.90
2018-04-26T19:40:43.952Z,10.00
2018-04-26T19:43:09.964Z,10.00
2018-04-26T19:45:36.663Z,9.80
2018-04-26T19:48:02.625Z,9.80
2018-04-26T19:50:29.419Z,9.80
2018-04-26T19:52:55.520Z,9.80
2018-04-26T19:55:21.548Z,9.70
2018-04-26T19:57:47.619Z,9.90
2018-04-26T20:00:13.549Z,9.90
2018-04-26T20:02:39.522Z,10.00
2018-04-26T20:05:05.495Z,10.00
2018-04-26T20:07:31.443Z,10.30
2018-04-26T20:09:58.152Z,9.80
2018-04-26T20:12:24.227Z,9.80
2018-04-26T20:14:50.225Z,9.90
2018-04-26T20:17:16.938Z,9.90
2018-04-26T20:19:42.925Z,9.80
2018-04-26T20:22:08.892Z,9.80
2018-04-26T20:24:35.645Z,9.70
2018-04-26T20:27:02.394Z,9.60
2018-04-26T20:29:28.397Z,9.60
2018-04-26T20:31:54.521Z,9.60
2018-04-26T20:34:20.522Z,9.70
2018-04-26T20:36:46.517Z,9.70
2018-04-26T20:39:12.488Z,9.70
2018-04-26T20:41:44.706Z,9.70
2018-04-26T20:44:10.701Z,9.50
2018-04-26T20:46:37.442Z,9.40
2018-04-26T20:49:04.219Z,9.50
2018-04-26T20:51:30.532Z,9.40
2018-04-26T20:53:56.533Z,9.50
2018-04-26T20:56:23.316Z,9.50
2018-04-26T20:58:49.292Z,9.40
2018-04-26T21:01:16.021Z,9.40
2018-04-26T21:03:42.105Z,9.40
2018-04-26T21:06:08.097Z,9.40
2018-04-26T21:08:34.825Z,9.50
2018-04-26T21:11:01.553Z,9.40
2018-04-26T21:13:27.558Z,9.40
2018-04-26T21:15:53.596Z,9.40
2018-04-26T21:18:19.577Z,9.40
2018-04-26T21:20:45.565Z,9.20
2018-04-26T21:23:11.545Z,9.30
2018-04-26T21:25:37.552Z,9.00
2018-04-26T21:28:03.561Z,8.90
2018-04-26T21:30:29.553Z,8.60
2018-04-26T21:32:55.556Z,8.80
2018-04-26T21:35:21.573Z,9.00
2018-04-26T21:37:47.551Z,9.00
2018-04-26T21:40:13.712Z,9.00
2018-04-26T21:42:39.696Z,8.80
2018-04-26T21:45:05.678Z,8.80
2018-04-26T21:47:31.694Z,8.80
2018-04-26T21:50:04.098Z,9.00
2018-04-26T21:52:36.574Z,9.00
2018-04-26T21:55:08.661Z,8.90
2018-04-26T21:57:40.877Z,8.90
2018-04-26T22:00:12.977Z,9.10
2018-04-26T22:02:38.927Z,9.20
2018-04-26T22:05:11.857Z,9.20
2018-04-26T22:07:38.620Z,8.90
2018-04-26T22:10:05.336Z,8.90
2018-04-26T22:12:31.328Z,8.90
2018-04-26T22:14:57.335Z,8.90
2018-04-26T22:17:23.326Z,8.90
2018-04-26T22:19:50.053Z,8.90
2018-04-26T22:22:16.789Z,9.00
2018-04-26T22:24:42.797Z,9.00
2018-04-26T22:27:08.866Z,9.00
2018-04-26T22:29:35.577Z,9.00
2018-04-26T22:32:01.574Z,9.00
2018-04-26T22:34:27.537Z,9.00
2018-04-26T22:36:54.398Z,9.10
2018-04-26T22:39:20.433Z,9.10
2018-04-26T22:41:46.465Z,9.30
2018-04-26T22:44:12.438Z,9.10
2018-04-26T22:46:38.477Z,9.10
2018-04-26T22:49:04.482Z,9.20
2018-04-26T22:51:30.457Z,9.20
2018-04-26T22:53:56.449Z,9.20
2018-04-26T22:56:23.185Z,9.10
2018-04-26T22:58:49.929Z,9.00
2018-04-26T23:01:16.649Z,9.10
2018-04-26T23:03:42.645Z,9.10
2018-04-26T23:06:08.650Z,9.20
2018-04-26T23:08:34.677Z,9.30
2018-04-26T23:11:00.646Z,9.10
2018-04-26T23:13:26.649Z,9.10
2018-04-26T23:15:52.630Z,9.10
2018-04-26T23:18:18.624Z,9.30
2018-04-26T23:20:45.350Z,9.10
2018-04-26T23:23:11.334Z,9.10
2018-04-26T23:25:37.313Z,8.80
2018-04-26T23:28:04.053Z,8.70
2018-04-26T23:30:30.061Z,8.70
2018-04-26T23:32:56.042Z,9.00
2018-04-26T23:35:22.045Z,9.00
2018-04-26T23:37:48.054Z,9.00
2018-04-26T23:40:14.837Z,8.90
2018-04-26T23:42:40.827Z,8.90
2018-04-26T23:45:07.555Z,8.90
2018-04-26T23:47:34.298Z,8.90
2018-04-26T23:50:01.049Z,8.90
2018-04-26T23:52:27.041Z,8.90
2018-04-26T23:54:53.046Z,8.80
2018-04-26T23:57:19.042Z,8.60
2018-04-26T23:59:45.033Z,8.60
